• Join FlightAware (Why Join?)
  • Login
  • US Flag 
08:17AM EDT


 

Airport Tracker/Info


-or-


 

Live Flight TrackerFlight Track Log ✈ DAL268 ✈ 31-Oct-2013 ✈ KSFO - KJFK

Flight Track Log - Related Links

Times and Time Zones

All times are in EDT time to prevent confusion due to time zone crossing. See the DAL268 flight status page for this flight to view local times or setup timezone preferences in your user account.

Time Position Orientation Groundspeed Altitude Reporting Facility
EDT Latitude Longitude Course Direction KTS MPH feet Rate Location/Type
02:17PM 37.6160 -122.3810 North  Level FlightAware
02:20PM 37.8535 -122.1299 38° Northeast  Level FlightAware Approximate
02:21PM 37.9445 -122.0388 38° Northeast  Level FlightAware Approximate
02:23PM 37.8050 -122.1784 38° Northeast  Level FlightAware Approximate
02:24PM 37.8960 -122.0873 38° Northeast  Level FlightAware Approximate
02:25PM 37.9833 -121.9939 90° East  Level FlightAware Approximate
02:26PM 38.0720 -121.9058 35° Northeast  Level FlightAware Approximate
02:27PM 38.1652 -121.8182 38° Northeast  Level FlightAware Approximate
02:28PM 38.2564 -121.7269 38° Northeast  Level FlightAware Approximate
02:29PM 38.3477 -121.6357 38° Northeast  Level FlightAware Approximate
02:30PM 38.4372 -121.5422 57° Northeast  Level FlightAware Approximate
02:31PM 37.6253 -122.3680 29° Northeast 168 193  Level FlightAware ADS-B
02:31PM 37.6326 -122.3630 28° Northeast 171 197 500 2,520 Climbing FlightAware ADS-B
02:31PM 37.6386 -122.3560 43° Northeast 173 199 900 2,280 Climbing FlightAware ADS-B
02:32PM 37.6478 -122.3430 48° Northeast 188 216 1,500 1,920 Climbing FlightAware ADS-B
02:32PM 37.6571 -122.3300 48° Northeast 207 238 1,900 1,860 Climbing FlightAware ADS-B
02:32PM 37.6682 -122.3150 47° Northeast 225 259 2,500 2,040 Climbing FlightAware ADS-B
02:32PM 37.6794 -122.2990 49° Northeast 244 281 3,000 2,340 Climbing FlightAware ADS-B
02:33PM 37.6854 -122.2900 50° Northeast 251 289 3,400 3,600 Climbing FlightAware ADS-B
02:33PM 37.6961 -122.2740 50° Northeast 246 283 4,400 3,600 Climbing FlightAware ADS-B
02:33PM 37.7074 -122.2560 52° Northeast 252 290 5,200 2,880 Climbing FlightAware ADS-B
02:33PM 37.7230 -122.2330 49° Northeast 259 298 6,100 2,880 Climbing FlightAware ADS-B
02:34PM 37.7414 -122.2120 42° Northeast 259 298 7,200 3,000 Climbing FlightAware ADS-B
02:34PM 37.7563 -122.1980 37° Northeast 266 306 7,900 2,700 Climbing FlightAware ADS-B
02:34PM 37.7727 -122.1830 36° Northeast 271 312 8,600 2,580 Climbing FlightAware ADS-B
02:35PM 37.7891 -122.1670 38° Northeast 275 316 9,300 2,520 Climbing FlightAware ADS-B
02:35PM 37.8206 -122.1380 36° Northeast 284 327 10,600 1,980 Climbing FlightAware ADS-B
02:36PM 37.8562 -122.1050 36° Northeast 304 350 11,400 1,320 Climbing FlightAware ADS-B
02:36PM 37.8927 -122.0710 36° Northeast 335 386 12,000 1,080 Climbing FlightAware ADS-B
02:37PM 37.9330 -122.0330 37° Northeast 361 415 12,500 1,440 Climbing FlightAware ADS-B
02:37PM 37.9743 -121.9940 37° Northeast 370 426 13,500 2,100 Climbing FlightAware ADS-B
02:38PM 38.0182 -121.9530 36° Northeast 375 432 14,700 1,980 Climbing FlightAware ADS-B
02:39PM 38.1030 -121.8730 37° Northeast 388 447 16,600 1,860 Climbing FlightAware
02:40PM 38.1970 -121.7850 36° Northeast 395 455 18,700 1,800 Climbing FlightAware
02:40PM 38.2600 -121.7260 36° Northeast 400 460 19,900 1,680 Climbing FlightAware
02:41PM 38.3480 -121.6420 37° Northeast 406 467 21,500 1,620 Climbing FlightAware
02:42PM 38.4340 -121.5580 37° Northeast 412 474 23,100 1,620 Climbing FlightAware
02:43PM 38.4770 -121.4960 48° Northeast 417 480 24,000 1,560 Climbing FlightAware
02:44PM 38.5200 -121.4210 54° Northeast 420 483 25,000 1,260 Climbing FlightAware
02:44PM 38.5610 -121.3500 54° Northeast 425 489 25,600 1,140 Climbing FlightAware
02:45PM 38.6160 -121.2550 53° Northeast 432 497 26,600 1,200 Climbing FlightAware
02:46PM 38.6540 -121.1900 53° Northeast 436 502 27,200 900 Climbing FlightAware
02:46PM 38.6900 -121.1280 53° Northeast 441 507 27,600 840 Climbing FlightAware
02:47PM 38.7370 -121.0470 53° Northeast 447 514 28,200 1,020 Climbing FlightAware
02:47PM 38.7920 -120.9510 54° Northeast 449 517 29,000 900 Climbing FlightAware
02:48PM 38.8670 -120.8220 53° Northeast 454 522 29,800 780 Climbing FlightAware
02:49PM 38.9110 -120.7460 53° Northeast 457 526 30,300 960 Climbing FlightAware
02:50PM 38.9519 -120.6749 53° Northeast 412 474 30,900 1,200 Climbing FlightAware ADS-B (KAHC)
02:50PM 38.9645 -120.6532 53° Northeast 455 524 31,100 960 Climbing FlightAware ADS-B (KAHC)
02:50PM 39.0118 -120.5711 53° Northeast 454 522 31,700 720 Climbing FlightAware ADS-B (KAHC)
02:51PM 39.0516 -120.5020 53° Northeast 456 525 32,000 960 Climbing FlightAware ADS-B (KAHC)
02:52PM 39.1175 -120.3869 54° Northeast 446 513 33,100 1,080 Climbing FlightAware ADS-B (KAHC)
02:52PM 39.1661 -120.3018 54° Northeast 446 513 33,700 840 Climbing FlightAware ADS-B (KAHC)
02:53PM 39.2113 -120.2226 54° Northeast 445 512 34,200 840 Climbing FlightAware ADS-B (KAHC)
02:54PM 39.2503 -120.1542 54° Northeast 443 510 34,700 720 Climbing FlightAware ADS-B (KAHC)
02:54PM 39.2876 -120.0884 54° Northeast 443 510 35,000 540 Climbing FlightAware ADS-B (KAHC)
02:55PM 39.3358 -120.0034 54° Northeast 444 511 35,400 600 Climbing FlightAware ADS-B (KAHC)
02:55PM 39.3658 -119.9503 54° Northeast 443 510 35,700 660 Climbing FlightAware ADS-B (KAHC)
02:56PM 39.4059 -119.8792 54° Northeast 439 505 36,100 840 Climbing FlightAware ADS-B (KAHC)
02:56PM 39.4559 -119.7903 54° Northeast 431 496 36,700 660 Climbing FlightAware ADS-B (KAHC)
02:57PM 39.4910 -119.7278 54° Northeast 431 496 36,900 300 Climbing FlightAware ADS-B (KAHC)
02:57PM 39.5258 -119.6656 54° Northeast 434 499 37,000 60 Climbing FlightAware ADS-B (KAHC)
02:58PM 39.5612 -119.6024 54° Northeast 438 504 37,000  Level FlightAware ADS-B (KAHC)
02:58PM 39.5976 -119.5372 54° Northeast 441 507 37,000  Level FlightAware ADS-B (KAHC)
02:59PM 39.6445 -119.4531 54° Northeast 446 513 37,000  Level FlightAware ADS-B (KAHC)
03:00PM 39.6824 -119.3849 54° Northeast 451 519 37,000  Level FlightAware ADS-B (KAHC)
03:00PM 39.7196 -119.3179 54° Northeast 453 521 37,000  Level FlightAware ADS-B (KAHC)
03:01PM 39.7544 -119.2551 54° Northeast 455 524 37,000  Level FlightAware ADS-B (KAHC)
03:01PM 39.8048 -119.1638 54° Northeast 457 526 37,000  Level FlightAware ADS-B (KAHC)
03:02PM 39.8544 -119.0737 54° Northeast 457 526 37,000  Level FlightAware ADS-B (KAHC)
03:02PM 39.8905 -119.0079 54° Northeast 458 527 37,000  Level FlightAware ADS-B (KAHC)
03:03PM 39.9282 -118.9392 54° Northeast 458 527 37,000  Level FlightAware ADS-B (KAHC)
03:04PM 39.9771 -118.8499 54° Northeast 458 527 37,000  Level FlightAware ADS-B (KAHC)
03:04PM 40.0129 -118.7842 55° Northeast 458 527 37,000  Level FlightAware ADS-B (KAHC)
03:05PM 40.0503 -118.7155 55° Northeast 457 526 37,000  Level FlightAware ADS-B (KAHC)
03:05PM 40.0873 -118.6475 55° Northeast 457 526 37,000  Level FlightAware ADS-B (KAHC)
03:06PM 40.1215 -118.5772 58° Northeast 461 531 37,000  Level FlightAware ADS-B (KAHC)
03:06PM 40.1460 -118.5029 67° East 467 537 37,000  Level FlightAware ADS-B (KAHC)
03:07PM 40.1686 -118.4212 70° East 467 537 37,000  Level FlightAware ADS-B (KAHC)
03:07PM 40.1971 -118.3172 70° East 466 536 37,000  Level FlightAware ADS-B (KAHC)
03:08PM 40.2262 -118.2105 70° East 466 536 37,000  Level FlightAware ADS-B (KAHC)
03:08PM 40.2481 -118.1298 70° East 466 536 37,000  Level FlightAware ADS-B (KAHC)
03:09PM 40.2692 -118.0525 70° East 465 535 37,000  Level FlightAware ADS-B (KAHC)
03:10PM 40.2973 -117.9487 70° East 463 533 37,000  Level FlightAware ADS-B (KAHC)
03:10PM 40.3193 -117.8673 70° East 464 534 37,000  Level FlightAware ADS-B (KAHC)
03:11PM 40.3478 -117.7613 71° East 463 533 37,000  Level FlightAware ADS-B (KAHC)
03:11PM 40.3684 -117.6841 71° East 463 533 37,000  Level FlightAware ADS-B (KAHC)
03:12PM 40.3902 -117.6028 71° East 463 533 37,000  Level FlightAware ADS-B (KAHC)
03:12PM 40.4155 -117.5078 71° East 464 534 37,000  Level FlightAware ADS-B (KAHC)
03:13PM 40.4380 -117.4370 67° East 463 533 37,000  Level FlightAware
03:14PM 40.4630 -117.3470 70° East 463 533 37,000  Level FlightAware
03:15PM 40.4850 -117.2660 70° East 463 533 37,000  Level FlightAware
03:15PM 40.5000 -117.2120 70° East 463 533 37,000  Level FlightAware
03:16PM 40.5230 -117.1310 69° East 463 533 37,000  Level FlightAware
03:17PM 40.5600 -116.9960 70° East 463 533 37,000  Level FlightAware
03:17PM 40.5830 -116.9140 70° East 463 533 37,000  Level FlightAware
03:18PM 40.6060 -116.8310 70° East 463 533 37,000  Level FlightAware
03:18PM 40.6280 -116.7500 70° East 463 533 37,000  Level FlightAware
03:19PM 40.6490 -116.6730 70° East 463 533 37,000  Level FlightAware
03:19PM 40.7190 -116.3700 73° East 467 537 37,000  Level FlightAware ADS-B
03:20PM 40.6950 -116.5060 257° West 463 533 37,000  Level FlightAware
03:21PM 40.7736 -116.1650 73° East 466 536 37,000  Level FlightAware ADS-B
03:21PM 40.7953 -116.0830 71° East 466 536 37,000  Level FlightAware ADS-B
03:22PM 40.8169 -116.0020 71° East 466 536 37,000  Level FlightAware ADS-B
03:22PM 40.8392 -115.9170 71° East 465 535 37,000  Level FlightAware ADS-B
03:22PM 40.8435 -115.9005 71° East 462 532 37,000  Level FlightAware ADS-B (KBTF)
03:23PM 40.8609 -115.8340 71° East 465 535 37,000  Level FlightAware ADS-B
03:23PM 40.8820 -115.7540 71° East 466 536 37,000  Level FlightAware ADS-B
03:24PM 40.9080 -115.6544 71° East 465 535 37,000  Level FlightAware ADS-B
03:25PM 40.9356 -115.5480 71° East 465 535 37,000  Level FlightAware ADS-B
03:25PM 40.9568 -115.4661 71° East 465 535 37,000  Level FlightAware ADS-B
03:26PM 40.9835 -115.3625 71° East 465 535 37,000  Level FlightAware ADS-B (KBTF)
03:26PM 41.0011 -115.2940 71° East 466 536 37,000  Level FlightAware ADS-B
03:26PM 41.0054 -115.2775 71° East 466 536 37,000  Level FlightAware ADS-B (KBTF)
03:27PM 41.0220 -115.2120 71° East 465 535 37,000  Level FlightAware ADS-B
03:27PM 41.0304 -115.1796 71° East 466 536 37,000  Level FlightAware ADS-B (KBTF)
03:27PM 41.0428 -115.1310 71° East 466 536 37,000  Level FlightAware ADS-B
03:27PM 41.0516 -115.0967 71° East 467 537 37,000  Level FlightAware ADS-B (KBTF)
03:28PM 41.0644 -115.0460 71° East 467 537 37,000  Level FlightAware ADS-B
03:28PM 41.0739 -115.0089 71° East 468 539 37,000  Level FlightAware ADS-B (KBTF)
03:28PM 41.0946 -114.9268 71° East 469 540 37,000  Level FlightAware ADS-B (KBTF)
03:29PM 41.0980 -114.9140 71° East 470 541 37,000  Level FlightAware ADS-B
03:29PM 41.1195 -114.8280 72° East 471 542 37,000  Level FlightAware ADS-B
03:29PM 41.1266 -114.7999 71° East 471 542 37,000  Level FlightAware ADS-B (KBTF)
03:30PM 41.1408 -114.7440 71° East 471 542 37,000  Level FlightAware ADS-B
03:30PM 41.1530 -114.6947 72° East 471 542 37,000  Level FlightAware ADS-B (KBTF)
03:30PM 41.1616 -114.6610 71° East 471 542 37,000  Level FlightAware ADS-B
03:31PM 41.1803 -114.5855 72° East 472 543 37,000  Level FlightAware ADS-B (KBTF)
03:31PM 41.1820 -114.5790 71° East 472 543 37,000  Level FlightAware ADS-B
03:31PM 41.2026 -114.4950 72° East 473 544 37,000  Level FlightAware ADS-B
03:31PM 41.2080 -114.4740 71° East 473 544 37,000  Level FlightAware ADS-B (KBTF)
03:32PM 41.2234 -114.4120 72° East 474 545 37,000  Level FlightAware ADS-B
03:32PM 41.2323 -114.3759 72° East 474 545 37,000  Level FlightAware ADS-B (KBTF)
03:32PM 41.2439 -114.3290 72° East 474 545 37,000  Level FlightAware ADS-B
03:32PM 41.2534 -114.2903 72° East 474 545 37,000  Level FlightAware ADS-B (KBTF)
03:33PM 41.2653 -114.2410 72° East 473 544 37,000  Level FlightAware ADS-B
03:33PM 41.2736 -114.2080 72° East 474 545 37,000  Level FlightAware ADS-B (KBTF)
03:33PM 41.2946 -114.1219 72° East 473 544 37,000  Level FlightAware ADS-B (KBTF)
03:34PM 41.3055 -114.0770 72° East 472 543 37,000  Level FlightAware ADS-B
03:34PM 41.3213 -114.0124 72° East 473 544 37,000  Level FlightAware ADS-B (KBTF)
03:34PM 41.3261 -113.9920 73° East 474 545 37,000  Level FlightAware ADS-B
03:35PM 41.3427 -113.9244 72° East 475 547 37,000  Level FlightAware ADS-B (KBTF)
03:35PM 41.3468 -113.9070 73° East 475 547 37,000  Level FlightAware ADS-B
03:35PM 41.3598 -113.8470 74° East 480 552 37,000  Level FlightAware ADS-B
03:35PM 41.3600 -113.8455 78° East 480 552 37,000  Level FlightAware ADS-B
03:35PM 41.3737 -113.7600 78° East 484 557 37,000  Level FlightAware ADS-B
03:36PM 41.3754 -113.7468 80° East 485 558 37,000  Level FlightAware ADS-B
03:36PM 41.3878 -113.6512 80° East 486 559 37,000  Level FlightAware ADS-B (KBTF)
03:36PM 41.3896 -113.6370 80° East 486 559 37,000  Level FlightAware ADS-B
03:37PM 41.4013 -113.5440 80° East 488 562 37,000  Level FlightAware ADS-B
03:37PM 41.4018 -113.5401 80° East 488 562 37,000  Level FlightAware ADS-B
03:37PM 41.4125 -113.4550 80° East 486 559 37,000  Level FlightAware ADS-B
03:37PM 41.4149 -113.4358 80° East 486 559 37,000  Level FlightAware ADS-B (KBTF)
03:38PM 41.4238 -113.3650 80° East 488 562 37,000  Level FlightAware ADS-B
03:38PM 41.4284 -113.3284 80° East 488 562 37,000  Level FlightAware ADS-B
03:38PM 41.4355 -113.2710 81° East 488 562 37,000  Level FlightAware ADS-B
03:38PM 41.4405 -113.2315 80° East 489 563 37,000  Level FlightAware ADS-B
03:39PM 41.4467 -113.1820 81° East 489 563 37,000  Level FlightAware ADS-B
03:39PM 41.4575 -113.0947 81° East 487 560 37,000  Level FlightAware ADS-B (KBTF)
03:39PM 41.4586 -113.0860 81° East 487 560 37,000  Level FlightAware ADS-B
03:40PM 41.4697 -112.9960 81° East 487 560 37,000  Level FlightAware ADS-B
03:40PM 41.4720 -112.9773 81° East 487 560 37,000  Level FlightAware ADS-B (KBTF)
03:40PM 41.4807 -112.9060 81° East 487 560 37,000  Level FlightAware ADS-B
03:40PM 41.4841 -112.8777 81° East 486 559 37,000  Level FlightAware ADS-B (KBTF)
03:41PM 41.4932 -112.8030 81° East 486 559 37,000  Level FlightAware ADS-B
03:41PM 41.4949 -112.7892 81° East 485 558 37,000  Level FlightAware ADS-B (KBTF)
03:41PM 41.5045 -112.7090 81° East 484 557 37,000  Level FlightAware ADS-B
03:41PM 41.5047 -112.7078 80° East 484 557 37,000  Level FlightAware ADS-B
03:42PM 41.5153 -112.6190 81° East 483 556 37,000  Level FlightAware ADS-B
03:42PM 41.5153 -112.6195 265° West 483 556 37,000  Level FlightAware ADS-B
03:42PM 41.5201 -112.5784 81° East 482 555 37,000  Level FlightAware ADS-B
03:42PM 41.5252 -112.5354 81° East 481 554 37,000  Level FlightAware ADS-B
03:43PM 41.5299 -112.4960 81° East 482 555 37,000  Level FlightAware ADS-B
03:43PM 41.5363 -112.4400 81° East 480 552 37,000  Level FlightAware ADS-B
03:43PM 41.5365 -112.4379 82° East 480 552 37,000  Level FlightAware ADS-B
03:43PM 41.5455 -112.3520 82° East 480 552 37,000  Level FlightAware ADS-B
03:44PM 41.5468 -112.3401 82° East 480 552 37,000  Level FlightAware ADS-B
03:44PM 41.5575 -112.2353 82° East 478 550 37,000  Level FlightAware ADS-B
03:44PM 41.5609 -112.2030 82° East 478 550 37,000  Level FlightAware ADS-B
03:45PM 41.5670 -112.1441 82° East 477 549 37,000  Level FlightAware ADS-B (KBTF)
03:45PM 41.5727 -112.0880 82° East 476 548 37,000  Level FlightAware ADS-B
03:45PM 41.5785 -112.0320 82° East 476 548 37,000  Level FlightAware ADS-B
03:46PM 41.5832 -111.9870 82° East 475 547 37,000  Level FlightAware ADS-B
03:46PM 41.5898 -111.9221 82° East 475 547 37,000  Level FlightAware ADS-B
03:46PM 41.5922 -111.8990 82° East 475 547 37,000  Level FlightAware ADS-B
03:47PM 41.6012 -111.8110 82° East 475 547 37,000  Level FlightAware ADS-B
03:47PM 41.6025 -111.7973 83° East 474 545 37,000  Level FlightAware ADS-B
03:47PM 41.6103 -111.7200 82° East 474 545 37,000  Level FlightAware ADS-B
03:47PM 41.6143 -111.6797 82° East 475 547 37,000  Level FlightAware ADS-B (KBTF)
03:48PM 41.6211 -111.6120 82° East 476 548 37,000  Level FlightAware ADS-B
03:48PM 41.6263 -111.5593 82° East 475 547 37,000  Level FlightAware ADS-B (KBTF)
03:48PM 41.6299 -111.5220 83° East 475 547 37,000  Level FlightAware ADS-B
03:49PM 41.6385 -111.4340 83° East 478 550 37,000  Level FlightAware ADS-B
03:49PM 41.6472 -111.3450 83° East 480 552 37,000  Level FlightAware ADS-B
03:49PM 41.6467 -111.3507 263° West 480 552 37,000  Level FlightAware ADS-B
03:50PM 41.6558 -111.2560 83° East 480 552 37,000  Level FlightAware ADS-B
03:50PM 41.6643 -111.1670 83° East 481 554 37,000  Level FlightAware ADS-B
03:51PM 41.6737 -111.0670 83° East 482 555 37,000  Level FlightAware ADS-B
03:51PM 41.6821 -110.9770 83° East 483 556 37,000  Level FlightAware ADS-B
03:52PM 41.6927 -110.8640 83° East 482 555 37,000  Level FlightAware ADS-B
03:53PM 41.7027 -110.7540 83° East 482 555 37,000  Level FlightAware ADS-B
03:53PM 41.7110 -110.6630 83° East 480 552 37,000  Level FlightAware ADS-B
03:54PM 41.7270 -110.5410 80° East 482 555 37,000  Level FlightAware
03:55PM 41.7460 -110.3600 82° East 482 555 37,000  Level FlightAware
03:56PM 41.7590 -110.2390 82° East 482 555 37,000  Level FlightAware
03:57PM 41.7680 -110.1490 82° East 482 555 37,000  Level FlightAware
03:58PM 41.7870 -109.9700 82° East 482 555 37,000  Level FlightAware
03:59PM 41.7970 -109.8770 82° East 482 555 37,000  Level FlightAware
03:59PM 41.8030 -109.8170 82° East 482 555 37,000  Level FlightAware
04:00PM 41.8200 -109.3760 87° East 484 557 37,000  Level FlightAware
04:01PM 41.8300 -109.2530 84° East 487 560 37,000  Level FlightAware
04:02PM 41.8390 -109.1320 84° East 486 559 37,000  Level FlightAware
04:02PM 41.8450 -109.0510 84° East 486 559 37,000  Level FlightAware
04:03PM 41.8570 -108.8980 84° East 489 563 37,000  Level FlightAware
04:04PM 41.8660 -108.7820 84° East 487 560 37,000  Level FlightAware
04:04PM 41.8720 -108.7010 84° East 488 562 37,000  Level FlightAware
04:05PM 41.8800 -108.5800 85° East 489 563 37,000  Level FlightAware
04:06PM 41.8940 -108.3930 84° East 490 564 37,000  Level FlightAware
04:07PM 41.9030 -108.2540 85° East 491 565 37,000  Level FlightAware
04:08PM 41.9170 -108.0480 85° East 490 564 37,000  Level FlightAware
04:08PM 41.9250 -107.9330 85° East 490 564 37,000  Level FlightAware
04:09PM 41.9310 -107.8630 83° East 490 564 37,000  Level FlightAware
04:09PM 41.9380 -107.7700 84° East 490 564 37,000  Level FlightAware
04:10PM 41.9470 -107.6470 84° East 490 564 37,000  Level FlightAware
04:11PM 41.9520 -107.5820 84° East 490 564 37,000  Level FlightAware
04:12PM 41.9650 -107.4220 84° East 490 564 37,000  Level FlightAware
04:12PM 41.9720 -107.3300 84° East 490 564 37,000  Level FlightAware
04:13PM 41.9850 -107.1700 84° East 490 564 37,000  Level FlightAware
04:14PM 41.9940 -107.0460 84° East 490 564 37,000  Level FlightAware
04:15PM 42.0010 -106.9580 84° East 490 564 37,000  Level FlightAware
04:15PM 42.0110 -106.8320 84° East 490 564 37,000  Level FlightAware
04:16PM 42.0160 -106.7620 84° East 490 564 37,000  Level FlightAware
04:17PM 42.0190 -106.3550 89° East 480 552 37,000  Level FlightAware
04:18PM 42.0230 -106.2710 86° East 479 551 37,000  Level FlightAware
04:19PM 42.0330 -106.0820 86° East 478 550 37,000  Level FlightAware
04:20PM 42.0410 -105.9020 87° East 481 554 37,000  Level FlightAware
04:20PM 42.0460 -105.8170 85° East 481 554 37,000  Level FlightAware
04:21PM 42.0520 -105.6870 86° East 483 556 37,000  Level FlightAware
04:22PM 42.0590 -105.5310 86° East 484 557 37,000  Level FlightAware
04:22PM 42.0640 -105.4160 87° East 489 563 37,000  Level FlightAware
04:23PM 42.0690 -105.3110 86° East 489 563 37,000  Level FlightAware
04:24PM 42.0730 -105.2020 87° East 485 558 37,000  Level FlightAware
04:24PM 42.0800 -105.1060 84° East 481 554 37,000  Level FlightAware
04:25PM 42.0890 -104.9980 84° East 484 557 37,000  Level FlightAware
04:25PM 42.0990 -104.8900 83° East 484 557 37,000  Level FlightAware
04:26PM 42.1080 -104.7880 83° East 484 557 37,000  Level FlightAware
04:27PM 42.1210 -104.6360 83° East 489 563 37,000  Level FlightAware
04:28PM 42.1380 -104.4280 84° East 490 564 37,000  Level FlightAware
04:28PM 42.1480 -104.3150 83° East 487 560 37,000  Level FlightAware
04:29PM 42.1590 -104.1870 83° East 487 560 37,000  Level FlightAware
04:30PM 42.1760 -103.9990 83° East 487 560 37,000  Level FlightAware
04:31PM 42.1820 -103.9380 82° East 487 560 37,000  Level FlightAware
04:31PM 42.1900 -103.8450 83° East 487 560 37,000  Level FlightAware
04:32PM 42.1990 -103.7530 82° East 487 560 37,000  Level FlightAware
04:33PM 42.2110 -103.6220 83° East 487 560 37,000  Level FlightAware
04:34PM 42.2180 -103.5350 84° East 487 560 37,000  Level FlightAware
04:34PM 42.2250 -103.4680 82° East 487 560 37,000  Level FlightAware
04:35PM 42.2390 -103.3090 83° East 487 560 37,000  Level FlightAware
04:36PM 42.2480 -103.2140 83° East 487 560 37,000  Level FlightAware
04:36PM 42.2590 -103.0910 83° East 487 560 37,000  Level FlightAware
04:37PM 42.2670 -103.0030 83° East 487 560 37,000  Level FlightAware
04:39PM 42.2840 -102.5000 87° East 487 560 37,000  Level FlightAware
04:39PM 42.2910 -102.4040 84° East 487 560 37,000  Level FlightAware
04:40PM 42.3010 -102.2780 84° East 487 560 37,000  Level FlightAware
04:41PM 42.3080 -102.1850 84° East 487 560 37,000  Level FlightAware
04:41PM 42.3130 -102.1240 84° East 487 560 37,000  Level FlightAware
04:42PM 42.3270 -101.9360 84° East 487 560 37,000  Level FlightAware
04:43PM 42.3340 -101.8430 84° East 487 560 37,000  Level FlightAware
04:43PM 42.3420 -101.7470 84° East 487 560 37,000  Level FlightAware
04:44PM 42.3470 -101.6860 84° East 487 560 37,000  Level FlightAware
04:44PM 42.3540 -101.5930 84° East 487 560 37,000  Level FlightAware
04:45PM 42.3610 -101.5000 84° East 487 560 37,000  Level FlightAware
04:46PM 42.3680 -101.4070 84° East 487 560 37,000  Level FlightAware
04:46PM 42.3750 -101.3140 84° East 487 560 37,000  Level FlightAware
04:47PM 42.3900 -101.1290 84° East 487 560 37,000  Level FlightAware
04:49PM 42.3881 -100.6839 84° East 484 557 37,000  Level Minneapolis Center
04:50PM 42.3969 -100.5017 86° East 484 557 37,000  Level Minneapolis Center
04:51PM 42.4058 -100.3192 86° East 485 558 37,000  Level Minneapolis Center
04:56PM 42.4470 -99.3540 86° East 490 564 37,000  Level FlightAware
04:56PM 42.4510 -99.2470 87° East 490 564 37,000  Level FlightAware
04:57PM 42.4560 -99.1030 87° East 492 566 37,000  Level FlightAware
04:58PM 42.4620 -98.9280 87° East 493 567 37,000  Level FlightAware
04:59PM 42.4660 -98.8260 87° East 492 566 37,000  Level FlightAware
05:00PM 42.4740 -98.6150 87° East 491 565 37,000  Level FlightAware
05:00PM 42.4800 -98.4880 86° East 491 565 37,000  Level FlightAware
05:02PM 42.4910 -98.2830 86° East 491 565 37,000  Level FlightAware
05:02PM 42.4950 -98.1840 87° East 491 565 37,000  Level FlightAware
05:03PM 42.5020 -98.0470 86° East 491 565 37,000  Level FlightAware
05:03PM 42.5067 -97.9342 87° East 492 566 37,000  Level FlightAware ADS-B
05:05PM 42.5150 -97.7400 87° East 492 566 37,000  Level FlightAware
05:05PM 42.5190 -97.6410 87° East 491 565 37,000  Level FlightAware
05:06PM 42.5240 -97.5370 86° East 492 566 37,000  Level FlightAware
05:06PM 42.5280 -97.4390 87° East 491 565 37,000  Level FlightAware
05:07PM 42.5303 -97.3723 87° East 492 566 37,000  Level FlightAware ADS-B
05:07PM 42.5360 -97.2270 87° East 491 565 37,000  Level FlightAware
05:08PM 42.5410 -97.1070 87° East 492 566 37,000  Level FlightAware
05:08PM 42.5440 -97.0150 87° East 493 567 37,000  Level FlightAware
05:09PM 42.5490 -96.8730 87° East 493 567 37,000  Level FlightAware
05:10PM 42.5530 -96.7720 87° East 494 568 37,000  Level FlightAware
05:10PM 42.5560 -96.6590 88° East 495 570 37,000  Level FlightAware
05:11PM 42.5590 -96.5670 87° East 495 570 37,000  Level FlightAware
05:11PM 42.5630 -96.4630 87° East 495 570 37,000  Level FlightAware
05:12PM 42.5670 -96.3450 87° East 495 570 37,000  Level FlightAware
05:13PM 42.5690 -96.2510 88° East 494 568 37,000  Level FlightAware
05:13PM 42.5730 -96.1240 88° East 494 568 37,000  Level FlightAware
05:14PM 42.5780 -95.9480 88° East 494 568 37,000  Level FlightAware
05:15PM 42.5810 -95.8430 88° East 493 567 37,000  Level FlightAware
05:15PM 42.5840 -95.7210 88° East 492 566 37,000  Level FlightAware
05:16PM 42.5870 -95.6030 88° East 491 565 37,000  Level FlightAware
05:16PM 42.5890 -95.5300 88° East 491 565 37,000  Level FlightAware
05:17PM 42.5917 -95.3981 88° East 491 565 37,000  Level FlightAware ADS-B
05:19PM 42.5970 -95.1510 88° East 490 564 37,000  Level FlightAware ADS-B
05:19PM 42.5990 -95.0280 89° East 490 564 37,000  Level FlightAware
05:20PM 42.6014 -94.9202 88° East 490 564 37,000  Level FlightAware ADS-B
05:21PM 42.6040 -94.7770 89° East 491 565 37,000  Level FlightAware
05:21PM 42.6050 -94.6970 89° East 491 565 37,000  Level FlightAware
05:22PM 42.6090 -94.4740 89° East 493 567 37,000  Level FlightAware
05:23PM 42.6100 -94.3490 89° East 494 568 37,000  Level FlightAware
05:23PM 42.6120 -94.2630 88° East 493 567 37,000  Level FlightAware
05:24PM 42.6130 -94.1370 89° East 494 568 37,000  Level FlightAware
05:25PM 42.6140 -93.9540 90° East 495 570 37,000  Level FlightAware
05:26PM 42.6150 -93.8630 89° East 495 570 37,000  Level FlightAware
05:26PM 42.6160 -93.6970 89° East 497 572 37,000  Level FlightAware
05:27PM 42.6160 -93.5190 90° East 498 573 37,000  Level FlightAware
05:28PM 42.6160 -93.4090 90° East 499 574 37,000  Level FlightAware
05:28PM 42.6170 -93.3130 89° East 500 575 37,000  Level FlightAware
05:29PM 42.6170 -93.1230 90° East 500 575 37,000  Level FlightAware
05:30PM 42.6170 -92.9950 90° East 501 577 37,000  Level FlightAware
05:31PM 42.6160 -92.8930 91° East 500 575 37,000  Level FlightAware
05:32PM 42.6160 -92.7160 90° East 500 575 37,000  Level FlightAware
05:32PM 42.6150 -92.6020 91° East 499 574 37,000  Level FlightAware
05:33PM 42.6140 -92.4350 90° East 498 573 37,000  Level FlightAware
05:34PM 42.6135 -92.3117 90° East 498 573 37,000  Level FlightAware ADS-B
05:34PM 42.6125 -92.1933 91° East 498 573 37,000  Level FlightAware ADS-B
05:36PM 42.6110 -91.9890 90° East 500 575 37,000  Level FlightAware
05:37PM 42.6085 -91.7952 91° East 502 578 37,000  Level FlightAware ADS-B
05:37PM 42.6069 -91.6707 91° East 504 580 37,000  Level FlightAware ADS-B
05:38PM 42.6053 -91.5465 91° East 506 582 37,000  Level FlightAware ADS-B
05:39PM 42.6025 -91.3619 91° East 508 585 37,000  Level FlightAware ADS-B
05:39PM 42.6006 -91.2455 91° East 508 585 37,000  Level FlightAware ADS-B
05:40PM 42.5983 -91.1166 91° East 509 586 37,000  Level FlightAware ADS-B
05:41PM 42.5959 -90.9850 91° East 510 587 37,000  Level FlightAware ADS-B
05:41PM 42.5935 -90.8659 91° East 511 588 37,000  Level FlightAware ADS-B
05:42PM 42.5909 -90.7379 92° East 512 589 37,000  Level FlightAware ADS-B
05:43PM 42.5880 -90.5860 91° East 513 590 37,000  Level FlightAware
05:43PM 42.5868 -90.5487 93° East 512 589 37,000  Level FlightAware ADS-B
05:44PM 42.5840 -90.4460 92° East 515 593 37,000  Level FlightAware
05:44PM 42.5830 -90.3700 91° East 515 593 37,000  Level FlightAware
05:45PM 42.5800 -90.2660 92° East 516 594 37,000  Level FlightAware
05:45PM 42.5750 -90.0890 92° East 515 593 37,000  Level FlightAware
05:46PM 42.5730 -89.9880 92° East 514 592 37,000  Level FlightAware
05:47PM 42.5690 -89.8800 93° East 512 589 37,000  Level FlightAware
05:47PM 42.5660 -89.7530 92° East 512 589 37,000  Level FlightAware
05:48PM 42.5600 -89.5720 93° East 512 589 37,000  Level FlightAware
05:49PM 42.5560 -89.4500 93° East 511 588 37,000  Level FlightAware
05:49PM 42.5520 -89.3140 92° East 510 587 37,000  Level FlightAware
05:50PM 42.5460 -89.1430 93° East 510 587 37,000  Level FlightAware
05:51PM 42.5400 -88.9790 93° East 511 588 37,000  Level FlightAware
05:52PM 42.5360 -88.8700 93° East 510 587 37,000  Level FlightAware
05:52PM 42.5330 -88.7880 93° East 510 587 37,000  Level FlightAware
05:53PM 42.5280 -88.6690 93° East 511 588 37,000  Level FlightAware
05:53PM 42.5240 -88.5530 93° East 511 588 37,000  Level FlightAware
05:54PM 42.5200 -88.4590 93° East 512 589 37,000  Level FlightAware
05:55PM 42.5110 -88.2550 93° East 515 593 37,000  Level FlightAware
05:56PM 42.5060 -88.1340 93° East 518 596 37,000  Level FlightAware
05:56PM 42.5020 -88.0360 93° East 521 600 37,000  Level FlightAware
05:57PM 42.5000 -87.9480 92° East 526 605 37,000  Level FlightAware
05:57PM 42.5000 -87.7710 90° East 532 612 37,000  Level FlightAware
05:58PM 42.4990 -87.6120 90° East 535 616 37,000  Level FlightAware
05:59PM 42.4990 -87.4460 90° East 540 621 37,000  Level FlightAware
06:00PM 42.4980 -87.3340 91° East 544 626 37,000  Level FlightAware
06:00PM 42.4980 -87.2210 90° East 545 627 37,000  Level FlightAware
06:01PM 42.4960 -87.0420 91° East 548 631 37,000  Level FlightAware
06:02PM 42.4940 -86.8370 91° East 549 632 37,000  Level FlightAware
06:03PM 42.4920 -86.6280 91° East 551 634 37,000  Level FlightAware
06:04PM 42.4910 -86.5400 91° East 552 635 37,000  Level FlightAware
06:04PM 42.4900 -86.4450 91° East 551 634 37,000  Level FlightAware
06:05PM 42.4860 -86.1820 91° East 550 633 37,000  Level FlightAware
06:06PM 42.4840 -86.0760 91° East 549 632 37,000  Level FlightAware
06:06PM 42.4820 -85.9440 91° East 548 631 37,000  Level FlightAware
06:07PM 42.4790 -85.7650 91° East 544 626 37,000  Level FlightAware
06:08PM 42.4750 -85.5880 92° East 539 620 37,000  Level FlightAware
06:09PM 42.4730 -85.4710 91° East 537 618 37,000  Level FlightAware
06:09PM 42.4710 -85.3780 92° East 535 616 37,000  Level FlightAware
06:10PM 42.4670 -85.2070 92° East 532 612 37,000  Level FlightAware
06:10PM 42.4650 -85.1220 92° East 531 611 37,000 60 Level FlightAware
06:12PM 42.4590 -84.8910 92° East 531 611 37,100 480 Climbing FlightAware
06:13PM 42.4540 -84.7160 92° East 532 612 38,100 1,140 Climbing FlightAware
06:13PM 42.4500 -84.5910 92° East 529 609 38,900 840 Climbing FlightAware
06:14PM 42.4480 -84.5150 92° East 529 609 39,000 300 Climbing FlightAware
06:15PM 42.4410 -84.3000 92° East 529 609 39,400 660 Climbing FlightAware
06:15PM 42.4360 -84.1360 92° East 527 606 40,300 900 Climbing FlightAware
06:16PM 42.4340 -84.0620 92° East 527 606 40,500 660 Climbing FlightAware
06:16PM 42.4300 -83.9670 93° East 528 608 40,900 300 Climbing FlightAware
06:17PM 42.4240 -83.7850 92° East 533 613 41,000  Climbing FlightAware
06:18PM 42.4190 -83.6530 93° East 535 616 41,000  Level FlightAware
06:19PM 42.4130 -83.5100 93° East 536 617 41,000  Level FlightAware
06:20PM 42.4040 -83.2710 93° East 541 623 41,000  Level FlightAware
06:21PM 42.3960 -83.0760 93° East 540 621 41,000  Level FlightAware
06:21PM 42.3920 -82.9830 93° East 540 621 41,000  Level FlightAware
06:22PM 42.3840 -82.8230 94° East 542 624 41,000  Level FlightAware
06:23PM 42.3780 -82.6760 93° East 544 626 41,000  Level FlightAware
06:23PM 42.3720 -82.5280 93° East 545 627 41,000  Level FlightAware
06:24PM 42.3640 -82.3160 93° East 549 632 41,000  Level FlightAware
06:25PM 42.3570 -82.1520 93° East 548 631 41,000 -180 Level FlightAware
06:26PM 42.3510 -81.9970 93° East 550 633 40,800 -840 Descending FlightAware
06:27PM 42.3420 -81.8230 94° East 552 635 39,700 -1,200 Descending FlightAware
06:28PM 42.3360 -81.6870 93° East 547 629 39,000 -540 Descending FlightAware
06:28PM 42.3290 -81.5380 94° East 547 629 39,000  Level FlightAware
06:29PM 42.3230 -81.3960 93° East 547 629 39,000  Level FlightAware
06:30PM 42.3140 -81.2190 94° East 549 632 39,000  Level FlightAware
06:31PM 42.3040 -81.0250 94° East 551 634 39,000  Level FlightAware
06:32PM 42.2950 -80.8620 94° East 553 636 39,000  Level FlightAware
06:33PM 42.2840 -80.6530 94° East 555 639 39,000  Level FlightAware
06:33PM 42.2770 -80.5500 95° East 553 636 39,000  Level FlightAware
06:34PM 42.2540 -80.3520 99° East 553 636 39,000  Level FlightAware
06:35PM 42.2390 -80.2410 100° East 552 635 39,000  Level FlightAware
06:35PM 42.2230 -80.1290 101° East 550 633 39,000  Level FlightAware
06:36PM 42.2050 -80.0000 101° East 548 631 39,000  Level FlightAware
06:37PM 42.1830 -79.8530 101° East 544 626 39,000  Level FlightAware
06:37PM 42.1570 -79.6800 101° East 539 620 39,000  Level FlightAware
06:38PM 42.1360 -79.5390 101° East 535 616 39,000  Level FlightAware
06:39PM 42.1030 -79.3290 102° East 531 611 39,000  Level FlightAware
06:40PM 42.0770 -79.1600 102° East 529 609 39,000  Level FlightAware
06:41PM 42.0520 -79.0010 102° East 527 606 39,000  Level FlightAware
06:41PM 42.0360 -78.8970 102° East 526 605 39,000  Level FlightAware
06:42PM 42.0100 -78.7390 102° East 526 605 39,000  Level FlightAware
06:43PM 41.9940 -78.6370 102° East 525 604 39,000  Level FlightAware
06:44PM 41.9700 -78.4850 102° East 524 603 39,000 -180 Level FlightAware
06:45PM 41.9420 -78.3130 102° East 523 602 38,700 -660 Descending FlightAware
06:45PM 41.9220 -78.1940 103° East 524 603 38,000 -1,020 Descending FlightAware
06:45PM 41.9130 -78.1400 103° East 523 602 37,800 -1,080 Descending FlightAware
06:46PM 41.8910 -78.0110 103° East 525 604 37,000 -480 Descending FlightAware
06:47PM 41.8540 -77.8140 104° East 528 608 37,000  Level FlightAware
06:48PM 41.8070 -77.6310 109° East 524 603 37,000  Level FlightAware
06:49PM 41.7730 -77.5020 109° East 525 604 37,000  Level FlightAware
06:50PM 41.7370 -77.3680 110° East 526 605 37,000  Level FlightAware
06:51PM 41.6910 -77.1980 110° East 526 605 37,000  Level FlightAware
06:52PM 41.6330 -76.9830 110° East 524 603 37,000  Level FlightAware
06:53PM 41.5870 -76.8140 110° East 521 600 37,000  Level FlightAware
06:53PM 41.5520 -76.6880 110° East 521 600 37,000 -120 Level FlightAware
06:54PM 41.5290 -76.6030 110° East 520 598 36,900 -960 Descending FlightAware
06:55PM 41.4880 -76.4530 110° East 524 603 35,800 -1,260 Descending FlightAware
06:55PM 41.4620 -76.3600 110° East 524 603 35,200 -1,260 Descending FlightAware
06:56PM 41.4330 -76.2580 111° Southeast 525 604 34,500 -1,200 Descending FlightAware
06:56PM 41.4110 -76.1790 110° East 527 606 34,000 -1,080 Descending FlightAware
06:57PM 41.3660 -76.0190 110° East 524 603 33,100 -1,140 Descending FlightAware
06:58PM 41.3170 -75.8430 110° East 523 602 32,000 -1,740 Descending FlightAware
06:59PM 41.2870 -75.7380 111° Southeast 524 603 30,400 -3,360 Descending FlightAware
06:59PM 41.2390 -75.5850 113° Southeast 527 606 27,200 -3,720 Descending FlightAware
07:00PM 41.1880 -75.4350 114° Southeast 524 603 24,200 -2,340 Descending FlightAware
07:01PM 41.1300 -75.2610 114° Southeast 506 582 23,000 -840 Descending FlightAware
07:02PM 41.0750 -75.1020 115° Southeast 507 583 22,600 -480 Descending FlightAware
07:03PM 41.0530 -75.0350 114° Southeast 504 580 22,400 -600 Descending FlightAware
07:03PM 41.0050 -74.8890 114° Southeast 510 587 21,900 -600 Descending FlightAware
07:04PM 40.9780 -74.7040 101° East 507 583 21,300 -600 Descending FlightAware
07:05PM 40.9620 -74.5590 98° East 509 586 20,900 -720 Descending FlightAware
07:06PM 40.9480 -74.4290 98° East 499 574 20,200 -1,200 Descending FlightAware
07:07PM 40.9330 -74.2950 98° East 464 534 19,200 -840 Descending FlightAware
07:08PM 40.9180 -74.1690 99° East 408 470 19,000 -240 Descending FlightAware
07:08PM 40.8890 -74.1000 119° Southeast 361 415 18,900 -840 Descending FlightAware
07:09PM 40.8453 -74.0654 149° Southeast 335 386 18,100 -1,620 Descending FlightAware ADS-B
07:09PM 40.7951 -74.0387 158° South 333 383 17,100 -1,560 Descending FlightAware ADS-B
07:10PM 40.7383 -74.0098 159° South 321 369 16,200 -1,320 Descending FlightAware ADS-B
07:11PM 40.6490 -73.9660 160° South 305 351 14,700 -1,440 Descending FlightAware
07:12PM 40.6030 -73.9420 158° South 303 349 13,800 -1,500 Descending FlightAware
07:12PM 40.5370 -73.9030 156° South 292 336 12,600 -1,140 Descending FlightAware
07:13PM 40.4870 -73.8750 157° South 278 320 12,000 -720 Descending FlightAware
07:14PM 40.4290 -73.8400 155° Southeast 251 289 11,500 -720 Descending FlightAware
07:14PM 40.4130 -73.8160 131° Southeast 273 314 11,200 -1,020 Descending FlightAware
07:15PM 40.4010 -73.7710 109° East 278 320 10,700 -1,020 Descending FlightAware
07:16PM 40.3840 -73.7020 108° East 271 312 10,000 -1,020 Descending FlightAware
07:16PM 40.3760 -73.6700 108° East 273 314 9,600 -1,080 Descending FlightAware
07:16PM 40.3750 -73.6600 97° East 277 319 9,500 -1,140 Descending FlightAware
07:17PM 40.3980 -73.6040 62° Northeast 280 322 8,800 -1,200 Descending FlightAware
07:17PM 40.4220 -73.5660 50° Northeast 279 321 8,200 -1,080 Descending FlightAware
07:18PM 40.4500 -73.5400 35° Northeast 270 311 7,800 -1,020 Descending FlightAware
07:18PM 40.4800 -73.5180 29° Northeast 268 308 7,300 -1,260 Descending FlightAware
07:18PM 40.5070 -73.4990 28° Northeast 270 311 6,700 -1,500 Descending FlightAware
07:19PM 40.5300 -73.4820 29° Northeast 272 313 6,200 -1,440 Descending FlightAware
07:19PM 40.5510 -73.4680 27° Northeast 271 312 5,800 -1,260 Descending FlightAware
07:20PM 40.5780 -73.4480 29° Northeast 269 310 5,300 -1,260 Descending FlightAware
07:20PM 40.6000 -73.4400 15° North 255 293 4,900 -1,260 Descending FlightAware
07:20PM 40.6240 -73.4430 355° North 250 288 4,500 -1,200 Descending FlightAware
07:21PM 40.6600 -73.4480 354° North 252 290 3,900 -1,200 Descending FlightAware
07:21PM 40.6940 -73.4540 352° North 251 289 3,300 -900 Descending FlightAware
07:22PM 40.7300 -73.4610 352° North 250 288 3,000 -300 Descending FlightAware
07:22PM 40.7570 -73.4790 333° Northwest 232 267 3,000  Level FlightAware
07:23PM 40.7800 -73.5090 315° West 220 253 3,000  Level FlightAware
07:23PM 40.7970 -73.5300 317° Northwest 200 230 3,000  Level FlightAware
07:24PM 40.8150 -73.5510 319° Northwest 199 229 3,000  Level FlightAware
07:24PM 40.8330 -73.5820 308° West 168 193 3,000 -120 Level FlightAware
07:25PM 40.8270 -73.6040 250° West 151 174 2,900 -120 Descending FlightAware
07:25PM 40.8140 -73.6220 226° Southwest 148 170 2,900 -120 Level FlightAware
07:26PM 40.7950 -73.6380 213° Southwest 148 170 2,800 -360 Descending FlightAware
07:26PM 40.7810 -73.6490 211° Southwest 144 166 2,600 -360 Descending FlightAware
07:26PM 40.7730 -73.6550 210° Southwest 138 159 2,600 -360 Level FlightAware
07:27PM 40.7590 -73.6650 208° Southwest 138 159 2,400 -420 Descending FlightAware
07:27PM 40.7480 -73.6740 212° Southwest 141 162 2,300 -480 Descending FlightAware
07:27PM 40.7360 -73.6840 212° Southwest 140 161 2,100 -720 Descending FlightAware
07:28PM 40.7210 -73.6960 211° Southwest 126 145 1,700 -780 Descending FlightAware
07:28PM 40.7100 -73.7040 209° Southwest 101 116 1,400 -540 Descending FlightAware
07:29PM 40.6970 -73.7140 210° Southwest 95 109 1,200 -480 Descending FlightAware
07:29PM 40.6870 -73.7220 211° Southwest 105 121 1,000 -600 Descending FlightAware
07:30PM 40.6750 -73.7320 212° Southwest 104 120 700 -600 Descending FlightAware
07:30PM 40.6620 -73.7420 210° Southwest 113 130 400 -600 Descending FlightAware
07:31PM 40.6510 -73.7510 212° Southwest 117 135 200 -540 Descending FlightAware
07:31PM 40.6390 -73.7590 207° Southwest 105 121 -540 Descending FlightAware